sensor_id;sensor_type;location;lat;lon;timestamp;P1;durP1;ratioP1;P2;durP2;ratioP2
15383;SDS011;7790;53.022;12.968;2022-07-21T00:01:34;7.37;;;5.13;;
15383;SDS011;7790;53.022;12.968;2022-07-21T00:05:35;7.37;;;5.13;;
15383;SDS011;7790;53.022;12.968;2022-07-21T00:09:36;6.93;;;5.43;;
15383;SDS011;7790;53.022;12.968;2022-07-21T00:13:37;7.17;;;5.70;;
15383;SDS011;7790;53.022;12.968;2022-07-21T00:17:38;8.30;;;5.30;;
15383;SDS011;7790;53.022;12.968;2022-07-21T00:21:39;8.93;;;4.80;;
15383;SDS011;7790;53.022;12.968;2022-07-21T00:25:40;6.73;;;4.77;;
15383;SDS011;7790;53.022;12.968;2022-07-21T00:29:40;6.03;;;4.83;;
15383;SDS011;7790;53.022;12.968;2022-07-21T00:33:41;6.00;;;4.90;;
15383;SDS011;7790;53.022;12.968;2022-07-21T00:37:42;6.17;;;4.70;;
15383;SDS011;7790;53.022;12.968;2022-07-21T00:41:43;6.13;;;4.90;;
15383;SDS011;7790;53.022;12.968;2022-07-21T00:45:44;6.60;;;4.93;;
15383;SDS011;7790;53.022;12.968;2022-07-21T00:49:46;8.60;;;4.90;;
15383;SDS011;7790;53.022;12.968;2022-07-21T00:53:47;8.87;;;5.30;;
15383;SDS011;7790;53.022;12.968;2022-07-21T00:57:49;5.83;;;4.90;;
15383;SDS011;7790;53.022;12.968;2022-07-21T01:01:51;7.27;;;4.80;;
15383;SDS011;7790;53.022;12.968;2022-07-21T01:05:52;6.07;;;4.80;;
15383;SDS011;7790;53.022;12.968;2022-07-21T01:09:52;8.63;;;4.77;;
15383;SDS011;7790;53.022;12.968;2022-07-21T01:13:55;7.57;;;5.10;;
15383;SDS011;7790;53.022;12.968;2022-07-21T01:17:56;5.57;;;5.03;;
15383;SDS011;7790;53.022;12.968;2022-07-21T01:21:57;6.67;;;5.47;;
15383;SDS011;7790;53.022;12.968;2022-07-21T01:25:58;7.53;;;4.93;;
15383;SDS011;7790;53.022;12.968;2022-07-21T01:29:59;7.27;;;4.83;;
15383;SDS011;7790;53.022;12.968;2022-07-21T01:34:00;6.73;;;5.40;;
15383;SDS011;7790;53.022;12.968;2022-07-21T01:38:01;5.87;;;5.23;;
15383;SDS011;7790;53.022;12.968;2022-07-21T01:42:03;7.30;;;5.07;;
15383;SDS011;7790;53.022;12.968;2022-07-21T01:46:04;8.23;;;4.60;;
15383;SDS011;7790;53.022;12.968;2022-07-21T01:50:05;7.40;;;4.80;;
15383;SDS011;7790;53.022;12.968;2022-07-21T01:54:06;6.20;;;4.73;;
15383;SDS011;7790;53.022;12.968;2022-07-21T01:58:07;5.40;;;4.90;;
15383;SDS011;7790;53.022;12.968;2022-07-21T02:02:08;7.27;;;5.17;;
15383;SDS011;7790;53.022;12.968;2022-07-21T02:06:10;11.67;;;5.33;;
15383;SDS011;7790;53.022;12.968;2022-07-21T02:10:11;8.33;;;5.30;;
15383;SDS011;7790;53.022;12.968;2022-07-21T02:14:12;5.87;;;4.97;;
15383;SDS011;7790;53.022;12.968;2022-07-21T02:18:13;5.77;;;4.93;;
15383;SDS011;7790;53.022;12.968;2022-07-21T02:22:13;9.67;;;5.30;;
15383;SDS011;7790;53.022;12.968;2022-07-21T02:26:14;11.20;;;5.23;;
15383;SDS011;7790;53.022;12.968;2022-07-21T02:30:15;8.97;;;5.10;;
15383;SDS011;7790;53.022;12.968;2022-07-21T02:34:16;9.27;;;5.53;;
15383;SDS011;7790;53.022;12.968;2022-07-21T02:38:17;7.23;;;5.20;;
15383;SDS011;7790;53.022;12.968;2022-07-21T02:42:17;8.23;;;5.37;;
15383;SDS011;7790;53.022;12.968;2022-07-21T02:46:18;6.70;;;5.03;;
15383;SDS011;7790;53.022;12.968;2022-07-21T02:50:19;7.57;;;4.80;;
15383;SDS011;7790;53.022;12.968;2022-07-21T02:54:22;7.03;;;4.90;;
15383;SDS011;7790;53.022;12.968;2022-07-21T02:58:26;9.47;;;5.67;;
15383;SDS011;7790;53.022;12.968;2022-07-21T03:02:28;8.87;;;5.50;;
15383;SDS011;7790;53.022;12.968;2022-07-21T03:06:29;11.03;;;5.43;;
15383;SDS011;7790;53.022;12.968;2022-07-21T03:10:30;10.90;;;5.90;;
15383;SDS011;7790;53.022;12.968;2022-07-21T03:14:31;13.53;;;5.77;;
15383;SDS011;7790;53.022;12.968;2022-07-21T03:18:32;10.93;;;5.40;;
15383;SDS011;7790;53.022;12.968;2022-07-21T03:22:33;7.50;;;4.80;;
15383;SDS011;7790;53.022;12.968;2022-07-21T03:26:33;9.73;;;5.80;;
15383;SDS011;7790;53.022;12.968;2022-07-21T03:30:38;6.80;;;5.50;;
15383;SDS011;7790;53.022;12.968;2022-07-21T03:34:39;7.80;;;5.50;;
15383;SDS011;7790;53.022;12.968;2022-07-21T03:38:40;10.63;;;5.30;;
15383;SDS011;7790;53.022;12.968;2022-07-21T03:42:41;5.83;;;4.83;;
15383;SDS011;7790;53.022;12.968;2022-07-21T03:46:42;10.13;;;5.70;;
15383;SDS011;7790;53.022;12.968;2022-07-21T03:50:43;6.27;;;5.70;;
15383;SDS011;7790;53.022;12.968;2022-07-21T03:54:44;10.20;;;5.37;;
15383;SDS011;7790;53.022;12.968;2022-07-21T03:58:44;7.93;;;5.30;;
15383;SDS011;7790;53.022;12.968;2022-07-21T04:02:45;9.97;;;5.40;;
15383;SDS011;7790;53.022;12.968;2022-07-21T04:06:47;12.97;;;5.80;;
15383;SDS011;7790;53.022;12.968;2022-07-21T04:10:48;8.03;;;5.60;;
15383;SDS011;7790;53.022;12.968;2022-07-21T04:14:48;10.10;;;5.57;;
15383;SDS011;7790;53.022;12.968;2022-07-21T04:18:49;6.93;;;5.20;;
15383;SDS011;7790;53.022;12.968;2022-07-21T04:22:50;7.10;;;5.50;;
15383;SDS011;7790;53.022;12.968;2022-07-21T04:26:52;8.43;;;5.63;;
15383;SDS011;7790;53.022;12.968;2022-07-21T04:30:53;6.60;;;5.43;;
15383;SDS011;7790;53.022;12.968;2022-07-21T04:34:53;7.50;;;5.57;;
15383;SDS011;7790;53.022;12.968;2022-07-21T04:38:54;10.17;;;6.00;;
15383;SDS011;7790;53.022;12.968;2022-07-21T04:42:55;7.90;;;5.70;;
15383;SDS011;7790;53.022;12.968;2022-07-21T04:46:56;7.13;;;5.57;;
15383;SDS011;7790;53.022;12.968;2022-07-21T04:50:57;6.30;;;5.40;;
15383;SDS011;7790;53.022;12.968;2022-07-21T04:54:58;9.83;;;6.00;;
15383;SDS011;7790;53.022;12.968;2022-07-21T04:58:59;7.23;;;5.33;;
15383;SDS011;7790;53.022;12.968;2022-07-21T05:03:00;6.87;;;5.70;;
15383;SDS011;7790;53.022;12.968;2022-07-21T05:07:00;8.13;;;5.27;;
15383;SDS011;7790;53.022;12.968;2022-07-21T05:11:01;9.73;;;5.00;;
15383;SDS011;7790;53.022;12.968;2022-07-21T05:15:03;9.30;;;5.07;;
15383;SDS011;7790;53.022;12.968;2022-07-21T05:19:09;12.80;;;5.80;;
15383;SDS011;7790;53.022;12.968;2022-07-21T05:23:10;11.77;;;7.40;;
15383;SDS011;7790;53.022;12.968;2022-07-21T05:27:11;9.70;;;8.13;;
15383;SDS011;7790;53.022;12.968;2022-07-21T05:31:12;10.63;;;7.67;;
15383;SDS011;7790;53.022;12.968;2022-07-21T05:35:13;10.73;;;8.33;;
15383;SDS011;7790;53.022;12.968;2022-07-21T05:39:14;8.00;;;7.20;;
15383;SDS011;7790;53.022;12.968;2022-07-21T05:43:15;9.90;;;8.90;;
15383;SDS011;7790;53.022;12.968;2022-07-21T05:47:16;10.53;;;9.10;;
15383;SDS011;7790;53.022;12.968;2022-07-21T05:51:16;12.97;;;9.67;;
15383;SDS011;7790;53.022;12.968;2022-07-21T05:55:17;13.43;;;10.53;;
15383;SDS011;7790;53.022;12.968;2022-07-21T05:59:18;14.17;;;11.50;;
15383;SDS011;7790;53.022;12.968;2022-07-21T06:03:20;12.93;;;11.57;;
15383;SDS011;7790;53.022;12.968;2022-07-21T06:07:21;16.40;;;11.80;;
15383;SDS011;7790;53.022;12.968;2022-07-21T06:11:21;15.53;;;13.20;;
15383;SDS011;7790;53.022;12.968;2022-07-21T06:15:22;20.70;;;13.97;;
15383;SDS011;7790;53.022;12.968;2022-07-21T06:19:23;16.97;;;14.57;;
15383;SDS011;7790;53.022;12.968;2022-07-21T06:23:24;16.17;;;14.53;;
15383;SDS011;7790;53.022;12.968;2022-07-21T06:27:26;23.20;;;14.40;;
15383;SDS011;7790;53.022;12.968;2022-07-21T06:31:27;15.83;;;14.07;;
15383;SDS011;7790;53.022;12.968;2022-07-21T06:35:28;17.20;;;13.17;;
15383;SDS011;7790;53.022;12.968;2022-07-21T06:39:28;13.77;;;12.40;;
15383;SDS011;7790;53.022;12.968;2022-07-21T06:43:29;14.13;;;12.17;;
15383;SDS011;7790;53.022;12.968;2022-07-21T06:47:30;15.03;;;13.03;;
15383;SDS011;7790;53.022;12.968;2022-07-21T06:51:31;12.70;;;11.37;;
15383;SDS011;7790;53.022;12.968;2022-07-21T06:55:32;13.00;;;11.50;;
15383;SDS011;7790;53.022;12.968;2022-07-21T06:59:33;13.43;;;11.83;;
15383;SDS011;7790;53.022;12.968;2022-07-21T07:03:34;13.00;;;11.43;;
15383;SDS011;7790;53.022;12.968;2022-07-21T07:07:36;14.83;;;11.10;;
15383;SDS011;7790;53.022;12.968;2022-07-21T07:11:37;12.40;;;11.10;;
15383;SDS011;7790;53.022;12.968;2022-07-21T07:15:39;12.20;;;11.00;;
15383;SDS011;7790;53.022;12.968;2022-07-21T07:19:40;15.23;;;12.33;;
15383;SDS011;7790;53.022;12.968;2022-07-21T07:23:41;13.57;;;11.10;;
15383;SDS011;7790;53.022;12.968;2022-07-21T07:27:46;12.30;;;11.00;;
15383;SDS011;7790;53.022;12.968;2022-07-21T07:31:48;11.63;;;10.53;;
15383;SDS011;7790;53.022;12.968;2022-07-21T07:35:49;12.67;;;10.30;;
15383;SDS011;7790;53.022;12.968;2022-07-21T07:39:50;11.30;;;10.30;;
15383;SDS011;7790;53.022;12.968;2022-07-21T07:43:51;12.10;;;10.97;;
15383;SDS011;7790;53.022;12.968;2022-07-21T07:47:52;12.43;;;11.23;;
15383;SDS011;7790;53.022;12.968;2022-07-21T07:51:52;12.10;;;10.90;;
15383;SDS011;7790;53.022;12.968;2022-07-21T07:55:53;12.57;;;11.27;;
15383;SDS011;7790;53.022;12.968;2022-07-21T07:59:54;12.53;;;11.37;;
15383;SDS011;7790;53.022;12.968;2022-07-21T08:03:55;12.73;;;11.43;;
15383;SDS011;7790;53.022;12.968;2022-07-21T08:07:56;12.37;;;11.10;;
15383;SDS011;7790;53.022;12.968;2022-07-21T08:11:57;11.33;;;10.40;;
15383;SDS011;7790;53.022;12.968;2022-07-21T08:15:58;12.03;;;10.77;;
15383;SDS011;7790;53.022;12.968;2022-07-21T08:19:58;11.57;;;10.47;;
15383;SDS011;7790;53.022;12.968;2022-07-21T08:24:00;13.67;;;10.97;;
15383;SDS011;7790;53.022;12.968;2022-07-21T08:28:01;11.47;;;10.43;;
15383;SDS011;7790;53.022;12.968;2022-07-21T08:32:03;11.50;;;10.37;;
15383;SDS011;7790;53.022;12.968;2022-07-21T08:36:04;11.03;;;9.93;;
15383;SDS011;7790;53.022;12.968;2022-07-21T08:40:06;12.07;;;10.50;;
15383;SDS011;7790;53.022;12.968;2022-07-21T08:44:08;11.23;;;10.13;;
15383;SDS011;7790;53.022;12.968;2022-07-21T08:48:11;11.10;;;10.10;;
15383;SDS011;7790;53.022;12.968;2022-07-21T08:52:14;10.67;;;9.77;;
15383;SDS011;7790;53.022;12.968;2022-07-21T08:56:14;10.40;;;9.40;;
15383;SDS011;7790;53.022;12.968;2022-07-21T09:00:16;10.13;;;9.23;;
15383;SDS011;7790;53.022;12.968;2022-07-21T09:04:20;10.70;;;9.70;;
15383;SDS011;7790;53.022;12.968;2022-07-21T09:08:34;9.73;;;8.83;;
15383;SDS011;7790;53.022;12.968;2022-07-21T09:12:53;10.40;;;9.40;;
15383;SDS011;7790;53.022;12.968;2022-07-21T09:16:56;10.27;;;9.30;;
15383;SDS011;7790;53.022;12.968;2022-07-21T09:20:58;9.63;;;8.73;;
15383;SDS011;7790;53.022;12.968;2022-07-21T09:25:00;9.80;;;8.90;;
15383;SDS011;7790;53.022;12.968;2022-07-21T09:29:09;10.20;;;9.20;;
15383;SDS011;7790;53.022;12.968;2022-07-21T09:33:17;9.67;;;8.83;;
15383;SDS011;7790;53.022;12.968;2022-07-21T09:37:20;9.60;;;8.70;;
15383;SDS011;7790;53.022;12.968;2022-07-21T09:41:23;9.67;;;8.77;;
15383;SDS011;7790;53.022;12.968;2022-07-21T09:45:25;10.00;;;9.20;;
15383;SDS011;7790;53.022;12.968;2022-07-21T09:49:30;9.50;;;8.80;;
15383;SDS011;7790;53.022;12.968;2022-07-21T09:53:54;9.50;;;8.50;;
15383;SDS011;7790;53.022;12.968;2022-07-21T09:58:00;9.57;;;8.77;;
15383;SDS011;7790;53.022;12.968;2022-07-21T10:02:02;9.63;;;8.83;;
15383;SDS011;7790;53.022;12.968;2022-07-21T10:06:03;9.53;;;8.63;;
15383;SDS011;7790;53.022;12.968;2022-07-21T10:10:05;9.07;;;8.27;;
15383;SDS011;7790;53.022;12.968;2022-07-21T10:14:08;8.50;;;7.80;;
15383;SDS011;7790;53.022;12.968;2022-07-21T10:18:13;8.80;;;7.90;;
15383;SDS011;7790;53.022;12.968;2022-07-21T10:31:21;8.50;;;7.70;;
15383;SDS011;7790;53.022;12.968;2022-07-21T10:39:25;7.90;;;6.90;;
15383;SDS011;7790;53.022;12.968;2022-07-21T10:47:27;8.20;;;7.50;;
15383;SDS011;7790;53.022;12.968;2022-07-21T10:51:31;8.30;;;7.37;;
15383;SDS011;7790;53.022;12.968;2022-07-21T10:55:36;8.13;;;7.33;;
15383;SDS011;7790;53.022;12.968;2022-07-21T11:04:33;8.10;;;7.30;;
15383;SDS011;7790;53.022;12.968;2022-07-21T11:09:10;7.57;;;6.70;;
15383;SDS011;7790;53.022;12.968;2022-07-21T11:13:13;7.83;;;6.90;;
15383;SDS011;7790;53.022;12.968;2022-07-21T11:17:25;6.90;;;6.27;;
15383;SDS011;7790;53.022;12.968;2022-07-21T11:21:30;6.87;;;6.27;;
15383;SDS011;7790;53.022;12.968;2022-07-21T11:25:30;7.20;;;6.50;;
15383;SDS011;7790;53.022;12.968;2022-07-21T11:29:34;6.77;;;6.17;;
15383;SDS011;7790;53.022;12.968;2022-07-21T11:33:41;6.93;;;6.30;;
15383;SDS011;7790;53.022;12.968;2022-07-21T11:37:45;6.37;;;5.87;;
15383;SDS011;7790;53.022;12.968;2022-07-21T11:41:46;6.23;;;5.73;;
15383;SDS011;7790;53.022;12.968;2022-07-21T11:45:51;7.00;;;6.30;;
15383;SDS011;7790;53.022;12.968;2022-07-21T11:49:54;6.70;;;6.10;;
15383;SDS011;7790;53.022;12.968;2022-07-21T11:53:55;6.50;;;5.90;;
15383;SDS011;7790;53.022;12.968;2022-07-21T11:57:56;6.60;;;6.10;;
15383;SDS011;7790;53.022;12.968;2022-07-21T12:02:02;6.40;;;5.90;;
15383;SDS011;7790;53.022;12.968;2022-07-21T12:06:20;6.83;;;6.17;;
15383;SDS011;7790;53.022;12.968;2022-07-21T12:10:22;6.57;;;6.07;;
15383;SDS011;7790;53.022;12.968;2022-07-21T12:18:40;6.10;;;5.60;;
15383;SDS011;7790;53.022;12.968;2022-07-21T12:22:44;6.03;;;5.53;;
15383;SDS011;7790;53.022;12.968;2022-07-21T12:26:49;5.50;;;5.10;;
15383;SDS011;7790;53.022;12.968;2022-07-21T12:30:51;5.63;;;5.20;;
15383;SDS011;7790;53.022;12.968;2022-07-21T12:34:52;5.67;;;5.27;;
15383;SDS011;7790;53.022;12.968;2022-07-21T12:38:54;6.20;;;5.60;;
15383;SDS011;7790;53.022;12.968;2022-07-21T12:43:05;6.03;;;5.43;;
15383;SDS011;7790;53.022;12.968;2022-07-21T12:47:16;6.07;;;5.50;;
15383;SDS011;7790;53.022;12.968;2022-07-21T12:55:18;5.33;;;4.93;;
15383;SDS011;7790;53.022;12.968;2022-07-21T12:59:19;5.90;;;5.40;;
15383;SDS011;7790;53.022;12.968;2022-07-21T13:03:20;5.03;;;4.63;;
15383;SDS011;7790;53.022;12.968;2022-07-21T13:07:21;5.57;;;5.10;;
15383;SDS011;7790;53.022;12.968;2022-07-21T13:11:22;5.23;;;4.83;;
15383;SDS011;7790;53.022;12.968;2022-07-21T13:15:23;5.03;;;4.63;;
15383;SDS011;7790;53.022;12.968;2022-07-21T13:19:24;5.50;;;5.10;;
15383;SDS011;7790;53.022;12.968;2022-07-21T13:23:25;5.70;;;5.30;;
15383;SDS011;7790;53.022;12.968;2022-07-21T13:27:26;5.20;;;4.73;;
15383;SDS011;7790;53.022;12.968;2022-07-21T13:31:27;5.47;;;5.07;;
15383;SDS011;7790;53.022;12.968;2022-07-21T13:35:28;5.10;;;4.70;;
15383;SDS011;7790;53.022;12.968;2022-07-21T13:39:29;5.10;;;4.70;;
15383;SDS011;7790;53.022;12.968;2022-07-21T13:43:31;5.10;;;4.63;;
15383;SDS011;7790;53.022;12.968;2022-07-21T13:47:32;5.03;;;4.63;;
15383;SDS011;7790;53.022;12.968;2022-07-21T13:51:33;5.00;;;4.60;;
15383;SDS011;7790;53.022;12.968;2022-07-21T13:55:34;4.67;;;4.30;;
15383;SDS011;7790;53.022;12.968;2022-07-21T13:59:35;4.70;;;4.40;;
15383;SDS011;7790;53.022;12.968;2022-07-21T14:03:36;4.50;;;4.10;;
15383;SDS011;7790;53.022;12.968;2022-07-21T14:07:37;4.90;;;4.50;;
15383;SDS011;7790;53.022;12.968;2022-07-21T14:11:38;4.70;;;4.40;;
15383;SDS011;7790;53.022;12.968;2022-07-21T14:15:39;5.00;;;4.60;;
15383;SDS011;7790;53.022;12.968;2022-07-21T14:19:40;4.57;;;4.20;;
15383;SDS011;7790;53.022;12.968;2022-07-21T14:23:41;4.90;;;4.50;;
15383;SDS011;7790;53.022;12.968;2022-07-21T14:27:41;4.33;;;3.97;;
15383;SDS011;7790;53.022;12.968;2022-07-21T14:31:42;4.47;;;4.17;;
15383;SDS011;7790;53.022;12.968;2022-07-21T14:35:43;4.40;;;4.10;;
15383;SDS011;7790;53.022;12.968;2022-07-21T14:39:48;4.53;;;4.23;;
15383;SDS011;7790;53.022;12.968;2022-07-21T14:43:49;4.47;;;4.07;;
15383;SDS011;7790;53.022;12.968;2022-07-21T14:47:50;4.80;;;4.40;;
15383;SDS011;7790;53.022;12.968;2022-07-21T14:51:52;4.83;;;4.43;;
15383;SDS011;7790;53.022;12.968;2022-07-21T14:55:53;4.40;;;4.10;;
15383;SDS011;7790;53.022;12.968;2022-07-21T14:59:54;4.60;;;4.30;;
15383;SDS011;7790;53.022;12.968;2022-07-21T15:03:54;4.77;;;4.40;;
15383;SDS011;7790;53.022;12.968;2022-07-21T15:07:55;4.57;;;4.27;;
15383;SDS011;7790;53.022;12.968;2022-07-21T15:11:56;4.83;;;4.07;;
15383;SDS011;7790;53.022;12.968;2022-07-21T15:15:57;4.50;;;4.20;;
15383;SDS011;7790;53.022;12.968;2022-07-21T15:19:58;4.60;;;4.20;;
15383;SDS011;7790;53.022;12.968;2022-07-21T15:24:00;11.73;;;5.90;;
15383;SDS011;7790;53.022;12.968;2022-07-21T15:28:01;6.83;;;6.13;;
15383;SDS011;7790;53.022;12.968;2022-07-21T15:32:02;8.87;;;6.77;;
15383;SDS011;7790;53.022;12.968;2022-07-21T15:36:03;7.83;;;5.97;;
15383;SDS011;7790;53.022;12.968;2022-07-21T15:40:05;6.90;;;5.70;;
15383;SDS011;7790;53.022;12.968;2022-07-21T15:44:07;7.27;;;6.30;;
15383;SDS011;7790;53.022;12.968;2022-07-21T15:48:08;10.00;;;5.83;;
15383;SDS011;7790;53.022;12.968;2022-07-21T15:52:09;10.10;;;5.53;;
15383;SDS011;7790;53.022;12.968;2022-07-21T15:56:11;8.53;;;5.60;;
15383;SDS011;7790;53.022;12.968;2022-07-21T16:00:12;9.57;;;5.53;;
15383;SDS011;7790;53.022;12.968;2022-07-21T16:04:14;9.80;;;6.67;;
15383;SDS011;7790;53.022;12.968;2022-07-21T16:08:15;9.60;;;7.23;;
15383;SDS011;7790;53.022;12.968;2022-07-21T16:12:16;9.77;;;6.23;;
15383;SDS011;7790;53.022;12.968;2022-07-21T16:16:17;8.47;;;6.67;;
15383;SDS011;7790;53.022;12.968;2022-07-21T16:20:18;9.73;;;6.40;;
15383;SDS011;7790;53.022;12.968;2022-07-21T16:24:21;7.83;;;6.50;;
15383;SDS011;7790;53.022;12.968;2022-07-21T16:28:24;10.27;;;6.93;;
15383;SDS011;7790;53.022;12.968;2022-07-21T16:32:25;9.67;;;7.23;;
15383;SDS011;7790;53.022;12.968;2022-07-21T16:36:26;8.07;;;7.27;;
15383;SDS011;7790;53.022;12.968;2022-07-21T16:40:26;9.70;;;8.57;;
15383;SDS011;7790;53.022;12.968;2022-07-21T16:44:27;10.13;;;9.10;;
15383;SDS011;7790;53.022;12.968;2022-07-21T16:48:28;11.93;;;8.93;;
15383;SDS011;7790;53.022;12.968;2022-07-21T16:52:29;8.80;;;7.97;;
15383;SDS011;7790;53.022;12.968;2022-07-21T16:56:30;11.47;;;8.60;;
15383;SDS011;7790;53.022;12.968;2022-07-21T17:00:30;10.00;;;8.03;;
15383;SDS011;7790;53.022;12.968;2022-07-21T17:04:31;9.60;;;8.60;;
15383;SDS011;7790;53.022;12.968;2022-07-21T17:08:32;9.20;;;8.20;;
15383;SDS011;7790;53.022;12.968;2022-07-21T17:12:33;12.73;;;8.40;;
15383;SDS011;7790;53.022;12.968;2022-07-21T17:16:34;9.47;;;8.00;;
15383;SDS011;7790;53.022;12.968;2022-07-21T17:20:34;13.17;;;11.87;;
15383;SDS011;7790;53.022;12.968;2022-07-21T17:24:35;24.93;;;21.93;;
15383;SDS011;7790;53.022;12.968;2022-07-21T17:28:36;36.97;;;33.17;;
15383;SDS011;7790;53.022;12.968;2022-07-21T17:32:37;83.63;;;73.07;;
15383;SDS011;7790;53.022;12.968;2022-07-21T17:36:38;180.50;;;135.17;;
15383;SDS011;7790;53.022;12.968;2022-07-21T17:40:39;146.33;;;106.90;;
15383;SDS011;7790;53.022;12.968;2022-07-21T17:44:39;231.97;;;171.13;;
15383;SDS011;7790;53.022;12.968;2022-07-21T17:48:40;44.03;;;34.53;;
15383;SDS011;7790;53.022;12.968;2022-07-21T17:52:41;27.47;;;23.00;;
15383;SDS011;7790;53.022;12.968;2022-07-21T17:56:42;26.47;;;18.13;;
15383;SDS011;7790;53.022;12.968;2022-07-21T18:00:43;22.17;;;18.40;;
15383;SDS011;7790;53.022;12.968;2022-07-21T18:04:44;29.93;;;24.90;;
15383;SDS011;7790;53.022;12.968;2022-07-21T18:08:45;24.80;;;20.90;;
15383;SDS011;7790;53.022;12.968;2022-07-21T18:12:46;18.73;;;16.10;;
15383;SDS011;7790;53.022;12.968;2022-07-21T18:16:47;13.97;;;11.97;;
15383;SDS011;7790;53.022;12.968;2022-07-21T18:20:48;14.73;;;12.03;;
15383;SDS011;7790;53.022;12.968;2022-07-21T18:24:49;10.37;;;9.17;;
15383;SDS011;7790;53.022;12.968;2022-07-21T18:28:50;9.30;;;8.40;;
15383;SDS011;7790;53.022;12.968;2022-07-21T18:32:51;10.00;;;8.60;;
15383;SDS011;7790;53.022;12.968;2022-07-21T18:36:52;9.63;;;8.20;;
15383;SDS011;7790;53.022;12.968;2022-07-21T18:40:53;9.07;;;8.03;;
15383;SDS011;7790;53.022;12.968;2022-07-21T18:44:54;8.63;;;7.67;;
15383;SDS011;7790;53.022;12.968;2022-07-21T18:48:55;7.47;;;6.73;;
15383;SDS011;7790;53.022;12.968;2022-07-21T18:52:56;7.40;;;6.70;;
15383;SDS011;7790;53.022;12.968;2022-07-21T18:56:56;6.37;;;5.83;;
15383;SDS011;7790;53.022;12.968;2022-07-21T19:00:57;6.20;;;5.60;;
15383;SDS011;7790;53.022;12.968;2022-07-21T19:05:02;6.00;;;5.40;;
15383;SDS011;7790;53.022;12.968;2022-07-21T19:09:04;5.93;;;5.40;;
15383;SDS011;7790;53.022;12.968;2022-07-21T19:13:05;5.90;;;5.30;;
15383;SDS011;7790;53.022;12.968;2022-07-21T19:17:06;6.10;;;5.37;;
15383;SDS011;7790;53.022;12.968;2022-07-21T19:21:07;8.40;;;4.83;;
15383;SDS011;7790;53.022;12.968;2022-07-21T19:25:08;5.70;;;5.10;;
15383;SDS011;7790;53.022;12.968;2022-07-21T19:29:09;5.30;;;4.80;;
15383;SDS011;7790;53.022;12.968;2022-07-21T19:33:10;6.10;;;5.50;;
15383;SDS011;7790;53.022;12.968;2022-07-21T19:37:11;5.83;;;5.33;;
15383;SDS011;7790;53.022;12.968;2022-07-21T19:41:13;5.30;;;4.80;;
15383;SDS011;7790;53.022;12.968;2022-07-21T19:45:14;5.73;;;5.20;;
15383;SDS011;7790;53.022;12.968;2022-07-21T19:49:15;5.50;;;5.00;;
15383;SDS011;7790;53.022;12.968;2022-07-21T19:53:16;5.40;;;4.90;;
15383;SDS011;7790;53.022;12.968;2022-07-21T19:57:17;5.57;;;5.03;;
15383;SDS011;7790;53.022;12.968;2022-07-21T20:01:18;5.57;;;4.93;;
15383;SDS011;7790;53.022;12.968;2022-07-21T20:05:19;6.03;;;5.10;;
15383;SDS011;7790;53.022;12.968;2022-07-21T20:09:20;6.33;;;5.20;;
15383;SDS011;7790;53.022;12.968;2022-07-21T20:13:20;4.80;;;4.50;;
15383;SDS011;7790;53.022;12.968;2022-07-21T20:17:21;5.37;;;4.87;;
15383;SDS011;7790;53.022;12.968;2022-07-21T20:21:22;4.90;;;4.50;;
15383;SDS011;7790;53.022;12.968;2022-07-21T20:25:23;5.73;;;5.17;;
15383;SDS011;7790;53.022;12.968;2022-07-21T20:29:24;5.53;;;5.03;;
15383;SDS011;7790;53.022;12.968;2022-07-21T20:33:24;5.63;;;5.07;;
15383;SDS011;7790;53.022;12.968;2022-07-21T20:37:25;5.50;;;5.00;;
15383;SDS011;7790;53.022;12.968;2022-07-21T20:41:26;7.10;;;5.37;;
15383;SDS011;7790;53.022;12.968;2022-07-21T20:45:27;5.20;;;4.80;;
15383;SDS011;7790;53.022;12.968;2022-07-21T20:49:29;10.67;;;7.27;;
15383;SDS011;7790;53.022;12.968;2022-07-21T20:53:30;10.47;;;7.50;;
15383;SDS011;7790;53.022;12.968;2022-07-21T20:57:31;11.80;;;7.77;;
15383;SDS011;7790;53.022;12.968;2022-07-21T21:01:32;11.30;;;8.83;;
15383;SDS011;7790;53.022;12.968;2022-07-21T21:05:33;14.23;;;8.10;;
15383;SDS011;7790;53.022;12.968;2022-07-21T21:09:34;10.77;;;8.00;;
15383;SDS011;7790;53.022;12.968;2022-07-21T21:13:35;11.10;;;7.57;;
15383;SDS011;7790;53.022;12.968;2022-07-21T21:17:35;13.67;;;7.73;;
15383;SDS011;7790;53.022;12.968;2022-07-21T21:21:36;9.10;;;7.13;;
15383;SDS011;7790;53.022;12.968;2022-07-21T21:25:37;8.33;;;7.20;;
15383;SDS011;7790;53.022;12.968;2022-07-21T21:29:38;8.60;;;7.43;;
15383;SDS011;7790;53.022;12.968;2022-07-21T21:33:39;10.70;;;6.80;;
15383;SDS011;7790;53.022;12.968;2022-07-21T21:37:40;8.23;;;6.90;;
15383;SDS011;7790;53.022;12.968;2022-07-21T21:41:40;7.73;;;6.97;;
15383;SDS011;7790;53.022;12.968;2022-07-21T21:45:41;7.87;;;5.90;;
15383;SDS011;7790;53.022;12.968;2022-07-21T21:49:42;7.90;;;6.93;;
15383;SDS011;7790;53.022;12.968;2022-07-21T21:53:43;7.47;;;6.37;;
15383;SDS011;7790;53.022;12.968;2022-07-21T21:57:44;8.87;;;6.13;;
15383;SDS011;7790;53.022;12.968;2022-07-21T22:01:44;7.30;;;6.37;;
15383;SDS011;7790;53.022;12.968;2022-07-21T22:05:45;7.10;;;6.40;;
15383;SDS011;7790;53.022;12.968;2022-07-21T22:09:46;6.30;;;5.67;;
15383;SDS011;7790;53.022;12.968;2022-07-21T22:13:47;6.63;;;5.93;;
15383;SDS011;7790;53.022;12.968;2022-07-21T22:17:48;6.37;;;5.87;;
15383;SDS011;7790;53.022;12.968;2022-07-21T22:21:49;8.13;;;6.73;;
15383;SDS011;7790;53.022;12.968;2022-07-21T22:25:50;6.20;;;5.60;;
15383;SDS011;7790;53.022;12.968;2022-07-21T22:29:51;6.90;;;5.80;;
15383;SDS011;7790;53.022;12.968;2022-07-21T22:33:51;7.87;;;6.40;;
15383;SDS011;7790;53.022;12.968;2022-07-21T22:37:52;6.00;;;5.50;;
15383;SDS011;7790;53.022;12.968;2022-07-21T22:41:53;10.40;;;6.23;;
15383;SDS011;7790;53.022;12.968;2022-07-21T22:45:54;6.60;;;5.80;;
15383;SDS011;7790;53.022;12.968;2022-07-21T22:49:55;7.20;;;5.70;;
15383;SDS011;7790;53.022;12.968;2022-07-21T22:53:56;6.23;;;5.60;;
15383;SDS011;7790;53.022;12.968;2022-07-21T22:57:58;6.80;;;5.73;;
15383;SDS011;7790;53.022;12.968;2022-07-21T23:01:59;6.90;;;6.13;;
15383;SDS011;7790;53.022;12.968;2022-07-21T23:05:59;6.53;;;5.87;;
15383;SDS011;7790;53.022;12.968;2022-07-21T23:10:00;6.30;;;5.70;;
15383;SDS011;7790;53.022;12.968;2022-07-21T23:14:03;8.07;;;6.10;;
15383;SDS011;7790;53.022;12.968;2022-07-21T23:18:04;5.90;;;5.40;;
15383;SDS011;7790;53.022;12.968;2022-07-21T23:22:05;6.63;;;6.03;;
15383;SDS011;7790;53.022;12.968;2022-07-21T23:26:06;6.60;;;6.00;;
15383;SDS011;7790;53.022;12.968;2022-07-21T23:30:07;6.57;;;6.07;;
15383;SDS011;7790;53.022;12.968;2022-07-21T23:34:08;7.57;;;5.33;;
15383;SDS011;7790;53.022;12.968;2022-07-21T23:38:09;5.87;;;5.37;;
15383;SDS011;7790;53.022;12.968;2022-07-21T23:42:10;6.93;;;5.60;;
15383;SDS011;7790;53.022;12.968;2022-07-21T23:46:10;6.57;;;6.03;;
15383;SDS011;7790;53.022;12.968;2022-07-21T23:50:11;6.17;;;5.67;;
15383;SDS011;7790;53.022;12.968;2022-07-21T23:54:12;6.27;;;5.80;;
15383;SDS011;7790;53.022;12.968;2022-07-21T23:58:13;5.97;;;5.47;;
